Terminal Aerodrome Forecast
Issued by NWS Goodland, KS

Home | Current Version | Previous Version | Text Only | Print | Product List | Glossary Off
Versions: 1 2 3 4 5 6 7 8 9 10 11 12 13 14

000
FTUS43 KGLD 212328
TAFGLD
TAF
KGLD 212328Z 2200/2224 13007KT P6SM BKN100
     FM220600 18012KT P6SM BKN120
     FM221500 18022G34KT P6SM SCT070 BKN150
     FM222100 18023G35KT P6SM BKN040=

USA.gov is the U.S. government's official web portal to all federal, state and local government web resources and services.